• Join FlightAware (Why Join?)
  • Login
  • US Flag 
11:07PM EDT


 

Airport Tracker/Info


-or-


 

Live Flight TrackerFlight Track Log ✈ EJA142 ✈ 03-Mar-2014 ✈ EGGW / LTN - KPVD

Flight Track Log - Related Links

Times and Time Zones

All times are in EST time to prevent confusion due to time zone crossing. See the EJA142 flight status page for this flight to view local times or setup timezone preferences in your user account.

Time Position Orientation Groundspeed Altitude Reporting Facility
EST Latitude Longitude Course Direction KTS MPH feet Rate Location/Type
06:35AM 60.2545 -21.3992 306° West  Level FlightAware Approximate
06:36AM 60.3083 -21.6188 296° West  Level FlightAware Approximate
06:37AM 60.3618 -21.8391 296° West  Level FlightAware Approximate
06:38AM 60.4149 -22.0600 296° West  Level FlightAware Approximate
06:39AM 60.4676 -22.2818 296° West  Level FlightAware Approximate
06:40AM 60.5200 -22.5042 296° West  Level FlightAware Approximate
06:41AM 60.5720 -22.7273 295° West  Level FlightAware Approximate
06:42AM 60.6236 -22.9512 295° West  Level FlightAware Approximate
06:43AM 60.6749 -23.1758 295° West  Level FlightAware Approximate
06:44AM 60.7258 -23.4011 295° West  Level FlightAware Approximate
06:45AM 60.7763 -23.6271 295° West  Level FlightAware Approximate
06:46AM 60.8264 -23.8538 294° West  Level FlightAware Approximate
06:47AM 60.8762 -24.0812 294° West  Level FlightAware Approximate
06:48AM 60.9255 -24.3094 294° West  Level FlightAware Approximate
06:49AM 60.9745 -24.5382 294° West  Level FlightAware Approximate
06:50AM 61.0231 -24.7678 294° West  Level FlightAware Approximate
06:51AM 61.0715 -24.9978 294° West  Level FlightAware Approximate
06:52AM 61.1197 -25.2284 293° West  Level FlightAware Approximate
06:53AM 61.1674 -25.4597 293° West  Level FlightAware Approximate
06:54AM 61.2148 -25.6917 293° West  Level FlightAware Approximate
06:55AM 61.2618 -25.9245 293° West  Level FlightAware Approximate
06:56AM 61.3083 -26.1579 293° West  Level FlightAware Approximate
06:57AM 61.3545 -26.3920 292° West  Level FlightAware Approximate
06:58AM 61.4003 -26.6268 292° West  Level FlightAware Approximate
06:59AM 61.4456 -26.8623 292° West  Level FlightAware Approximate
07:00AM 61.4906 -27.0984 292° West  Level FlightAware Approximate
07:01AM 61.5351 -27.3353 292° West  Level FlightAware Approximate
07:02AM 61.5793 -27.5728 291° West  Level FlightAware Approximate
07:03AM 61.6230 -27.8110 291° West  Level FlightAware Approximate
07:04AM 61.6663 -28.0499 291° West  Level FlightAware Approximate
07:05AM 61.7091 -28.2894 291° West  Level FlightAware Approximate
07:06AM 61.7516 -28.5296 291° West  Level FlightAware Approximate
07:07AM 61.7937 -28.7705 290° West  Level FlightAware Approximate
07:08AM 61.8353 -29.0120 290° West  Level FlightAware Approximate
07:09AM 61.8765 -29.2542 290° West  Level FlightAware Approximate
07:10AM 61.9172 -29.4970 290° West  Level FlightAware Approximate
07:11AM 61.9576 -29.7404 290° West  Level FlightAware Approximate
07:12AM 61.9975 -29.9845 289° West  Level FlightAware Approximate
07:13AM 62.0085 -30.2416 274° West  Level FlightAware Approximate
07:14AM 62.0172 -30.4998 274° West  Level FlightAware Approximate
07:15AM 62.0254 -30.7580 274° West  Level FlightAware Approximate
07:16AM 62.0331 -31.0164 274° West  Level FlightAware Approximate
07:17AM 62.0403 -31.2749 274° West  Level FlightAware Approximate
07:18AM 62.0470 -31.5335 273° West  Level FlightAware Approximate
07:19AM 62.0533 -31.7922 273° West  Level FlightAware Approximate
07:20AM 62.0590 -32.0511 273° West  Level FlightAware Approximate
07:21AM 62.0643 -32.3100 273° West  Level FlightAware Approximate
07:22AM 62.0691 -32.5690 272° West  Level FlightAware Approximate
07:23AM 62.0734 -32.8281 272° West  Level FlightAware Approximate
07:24AM 62.0772 -33.0873 272° West  Level FlightAware Approximate
07:25AM 62.0806 -33.3465 272° West  Level FlightAware Approximate
07:26AM 62.0834 -33.6058 271° West  Level FlightAware Approximate
07:27AM 62.0858 -33.8651 271° West  Level FlightAware Approximate
07:28AM 62.0877 -34.1245 271° West  Level FlightAware Approximate
07:29AM 62.0891 -34.3839 271° West  Level FlightAware Approximate
07:30AM 62.0900 -34.6433 271° West  Level FlightAware Approximate
07:31AM 62.0904 -34.9027 270° West  Level FlightAware Approximate
07:32AM 62.0904 -35.1621 270° West  Level FlightAware Approximate
07:33AM 62.0898 -35.4215 270° West  Level FlightAware Approximate
07:34AM 62.0888 -35.6809 270° West  Level FlightAware Approximate
07:35AM 62.0873 -35.9403 269° West  Level FlightAware Approximate
07:36AM 62.0853 -36.1997 269° West  Level FlightAware Approximate
07:36AM 62.0833 -36.2167 268° West 450 518 43,000  Level Gander Center
07:37AM 62.0828 -36.4590 269° West  Level FlightAware Approximate
07:37AM 62.0833 -36.4833 270° West 450 518 43,000  Level Gander Center
07:38AM 62.0798 -36.7183 269° West  Level FlightAware Approximate
07:38AM 62.0833 -36.7500 270° West 450 518 43,000  Level Gander Center
07:39AM 62.0763 -36.9775 268° West  Level FlightAware Approximate
07:39AM 62.0833 -37.0000 270° West 450 518 43,000  Level Gander Center
07:40AM 62.0724 -37.2366 268° West  Level FlightAware Approximate
07:40AM 62.0667 -37.2667 263° West 450 518 43,000  Level Gander Center
07:41AM 62.0680 -37.4957 268° West  Level FlightAware Approximate
07:41AM 62.0667 -37.5333 270° West 450 518 43,000  Level Gander Center
07:42AM 62.0630 -37.7547 268° West  Level FlightAware Approximate
07:42AM 62.0667 -37.8000 270° West 460 529 43,000  Level Gander Center
07:43AM 62.0500 -38.0667 263° West 450 518 43,000  Level Gander Center
07:44AM 62.0500 -38.3333 270° West 450 518 43,000  Level Gander Center
07:45AM 62.0333 -38.6000 263° West 450 518 43,000  Level Gander Center
07:46AM 62.0500 -38.8500 278° West 450 518 43,000  Level Gander Center
07:47AM 62.0333 -39.1167 263° West 450 518 43,000  Level Gander Center
07:48AM 62.0167 -39.3833 263° West 460 529 43,000  Level Gander Center
07:49AM 62.0167 -39.6500 270° West 460 529 43,000  Level Gander Center
07:50AM 62.0000 -39.9167 263° West 460 529 43,000  Level Gander Center
07:51AM 61.9833 -40.1833 263° West 450 518 43,000  Level Gander Center
07:52AM 61.9667 -40.4167 261° West 450 518 43,000  Level Gander Center
07:53AM 61.9500 -40.6833 263° West 450 518 43,000  Level Gander Center
07:54AM 61.9333 -40.9500 263° West 450 518 43,000  Level Gander Center
07:55AM 61.9167 -41.2167 263° West 450 518 43,000  Level Gander Center
07:56AM 61.9000 -41.4833 263° West 450 518 43,000  Level Gander Center
07:57AM 61.8667 -41.7167 253° West 450 518 43,000  Level Gander Center
07:58AM 61.8500 -41.9833 263° West 450 518 43,000  Level Gander Center
07:59AM 61.8333 -42.2500 263° West 450 518 43,000  Level Gander Center
08:00AM 61.8167 -42.5167 263° West 450 518 43,000  Level Gander Center
08:01AM 61.8000 -42.7833 263° West 450 518 43,000  Level Gander Center
08:02AM 61.7667 -43.0500 255° West 450 518 43,000  Level Gander Center
08:03AM 61.7500 -43.3167 263° West 450 518 43,000  Level Gander Center
08:04AM 61.7333 -43.5333 261° West 450 518 43,000  Level Gander Center
08:05AM 61.7167 -43.8000 263° West 460 529 43,000  Level Gander Center
08:06AM 61.6833 -44.0667 255° West 460 529 43,000  Level Gander Center
08:07AM 61.6667 -44.3333 263° West 460 529 43,000  Level Gander Center
08:08AM 61.6333 -44.5667 253° West 460 529 43,000  Level Gander Center
08:09AM 61.6167 -44.8167 262° West 460 529 43,000  Level Gander Center
08:10AM 61.5833 -45.0833 255° West 460 529 43,000  Level Gander Center
08:11AM 61.5667 -45.3500 263° West 460 529 43,000  Level Gander Center
08:12AM 61.5333 -45.6167 255° West 460 529 43,000  Level Gander Center
08:13AM 61.5000 -45.8833 255° West 460 529 43,000  Level Gander Center
08:14AM 61.4833 -46.1333 262° West 460 529 43,000  Level Gander Center
08:15AM 61.4500 -46.4000 255° West 460 529 43,000  Level Gander Center
08:16AM 61.4167 -46.6667 255° West 460 529 43,000  Level Gander Center
08:17AM 61.3833 -46.9167 255° West 460 529 43,000  Level Gander Center
08:18AM 61.3667 -47.1833 263° West 460 529 43,000  Level Gander Center
08:19AM 61.3167 -47.4333 247° West 460 529 43,000  Level Gander Center
08:20AM 61.3000 -47.7000 263° West 460 529 43,000  Level Gander Center
08:21AM 61.2667 -47.9500 255° West 460 529 43,000  Level Gander Center
08:22AM 61.2333 -48.2167 256° West 460 529 43,000  Level Gander Center
08:23AM 61.2000 -48.4333 252° West 460 529 43,000  Level Gander Center
08:24AM 61.1667 -48.7333 257° West 460 529 43,000  Level Gander Center
08:25AM 61.1500 -48.9833 262° West 460 529 43,000  Level Gander Center
08:26AM 61.1000 -49.2500 249° West 460 529 43,000  Level Gander Center
08:27AM 61.0667 -49.5000 255° West 470 541 43,000  Level Gander Center
08:28AM 61.0333 -49.7500 255° West 470 541 43,000  Level Gander Center
08:29AM 61.0000 -50.0000 255° West 470 541 43,000  Level Gander Center
08:30AM 60.9667 -50.2667 256° West 470 541 43,000  Level Gander Center
08:31AM 60.9167 -50.5167 248° West 470 541 43,000  Level Gander Center
08:32AM 60.8667 -50.7667 248° West 470 541 43,000  Level Gander Center
08:33AM 60.8333 -51.0167 255° West 470 541 43,000  Level Gander Center
08:34AM 60.8000 -51.2833 256° West 470 541 43,000  Level Gander Center
08:35AM 60.7667 -51.5333 255° West 470 541 43,000  Level Gander Center
08:36AM 60.7167 -51.7833 248° West 470 541 43,000  Level Gander Center
08:37AM 60.6833 -52.0333 255° West 470 541 43,000  Level Gander Center
08:38AM 60.6333 -52.2833 248° West 470 541 43,000  Level Gander Center
08:39AM 60.6000 -52.5333 255° West 470 541 43,000  Level Gander Center
08:40AM 60.5333 -52.7833 242° Southwest 470 541 43,000  Level Gander Center
08:41AM 60.5000 -53.0333 255° West 470 541 43,000  Level Gander Center
08:42AM 60.4500 -53.2833 248° West 470 541 43,000  Level Gander Center
08:43AM 60.4000 -53.5333 248° West 470 541 43,000  Level Gander Center
08:44AM 60.3667 -53.7667 254° West 470 541 43,000  Level Gander Center
08:45AM 60.3167 -54.0167 248° West 470 541 43,000  Level Gander Center
08:46AM 60.2667 -54.2667 248° West 470 541 43,000  Level Gander Center
08:47AM 60.2167 -54.5167 248° West 470 541 43,000  Level Gander Center
08:48AM 60.1833 -54.7500 254° West 470 541 43,000  Level Gander Center
08:49AM 60.1167 -55.0000 242° Southwest 470 541 43,000  Level Gander Center
08:50AM 60.0833 -55.2333 254° West 470 541 43,000  Level Gander Center
08:51AM 60.0333 -55.4833 248° West 470 541 43,000  Level Gander Center
08:52AM 59.9667 -55.7333 242° Southwest 470 541 43,000  Level Gander Center
08:53AM 59.9333 -55.9333 252° West 480 552 43,000  Level Gander Center
08:54AM 59.8667 -56.1833 242° Southwest 470 541 43,000  Level Gander Center
08:55AM 59.8333 -56.4167 254° West 470 541 43,000  Level Gander Center
08:56AM 59.7667 -56.6500 241° Southwest 470 541 43,000  Level Gander Center
08:57AM 59.7333 -56.8833 254° West 470 541 43,000  Level Gander Center
08:58AM 59.6667 -57.1333 242° Southwest 470 541 43,000  Level Gander Center
08:59AM 59.6000 -57.3333 237° Southwest 460 529 43,000  Level Gander Center
09:00AM 59.5000 -57.4833 217° Southwest 460 529 43,000  Level Gander Center
09:01AM 59.3833 -57.6167 210° Southwest 460 529 43,000  Level Gander Center
09:02AM 59.2667 -57.7333 207° Southwest 460 529 43,000  Level Gander Center
09:03AM 59.1667 -57.8667 214° Southwest 460 529 43,000  Level Gander Center
09:04AM 59.0500 -58.0167 213° Southwest 470 541 43,000  Level Gander Center
09:05AM 58.9500 -58.1167 207° Southwest 460 529 43,000  Level Gander Center
09:06AM 58.8333 -58.2500 211° Southwest 470 541 43,000  Level Gander Center
09:07AM 58.7167 -58.4000 214° Southwest 470 541 43,000  Level Gander Center
09:08AM 58.6000 -58.5000 204° Southwest 470 541 43,000  Level Gander Center
09:09AM 58.5000 -58.6333 215° Southwest 460 529 43,000  Level Gander Center
09:10AM 58.3667 -58.7167 198° South 470 541 43,000  Level Montreal Center
09:11AM 58.2667 -58.8333 212° Southwest 460 529 43,000  Level Montreal Center
09:12AM 58.1500 -58.9500 208° Southwest 460 529 43,000  Level Montreal Center
09:13AM 58.0333 -59.0667 208° Southwest 460 529 43,000  Level Montreal Center
09:14AM 57.9333 -59.1833 212° Southwest 450 518 43,000  Level Montreal Center
09:15AM 57.8167 -59.3000 208° Southwest 460 529 43,000  Level Montreal Center
09:16AM 57.7000 -59.4167 208° Southwest 460 529 43,000  Level Montreal Center
09:17AM 57.6000 -59.5333 212° Southwest 460 529 43,000  Level Montreal Center
09:18AM 57.4833 -59.6333 205° Southwest 460 529 43,000  Level Montreal Center
09:19AM 57.3667 -59.7500 208° Southwest 460 529 43,000  Level Montreal Center
09:20AM 57.2667 -59.9000 219° Southwest 450 518 43,000  Level Montreal Center
09:21AM 57.1500 -60.0000 205° Southwest 450 518 43,000  Level Montreal Center
09:22AM 57.0500 -60.0833 204° Southwest 460 529 43,000  Level Montreal Center
09:23AM 56.9500 -60.2167 216° Southwest 450 518 43,000  Level Montreal Center
09:24AM 56.8167 -60.3333 206° Southwest 450 518 43,000  Level Montreal Center
09:25AM 56.7167 -60.4500 213° Southwest 450 518 43,000  Level Montreal Center
09:26AM 56.6000 -60.5500 205° Southwest 450 518 43,000  Level Montreal Center
09:27AM 56.4833 -60.6667 209° Southwest 450 518 43,000  Level Montreal Center
09:28AM 56.3833 -60.7667 209° Southwest 450 518 43,000  Level Montreal Center
09:29AM 56.2667 -60.8667 205° Southwest 460 529 43,000  Level Montreal Center
09:30AM 56.1500 -60.9833 209° Southwest 460 529 43,000  Level Montreal Center
09:31AM 56.0333 -61.0833 206° Southwest 460 529 43,000  Level Montreal Center
09:33AM 55.9000 -61.2833 220° Southwest 460 529 43,000  Level Gander Center
09:34AM 55.7667 -61.4000 206° Southwest 460 529 43,000  Level Gander Center
09:35AM 55.6667 -61.4833 205° Southwest 460 529 43,000  Level Gander Center
09:36AM 55.5500 -61.5833 206° Southwest 460 529 43,000  Level Gander Center
09:37AM 55.4333 -61.7000 210° Southwest 460 529 43,000  Level Gander Center
09:38AM 55.3333 -61.8167 214° Southwest 460 529 43,000  Level Gander Center
09:39AM 55.2167 -61.9000 202° Southwest 460 529 43,000  Level Gander Center
09:40AM 55.1000 -62.0167 210° Southwest 460 529 43,000  Level Gander Center
09:41AM 54.9833 -62.1000 202° Southwest 460 529 43,000  Level Gander Center
09:42AM 54.8833 -62.2167 214° Southwest 460 529 43,000  Level Gander Center
09:43AM 54.7667 -62.3000 202° Southwest 450 518 43,000  Level Gander Center
09:44AM 54.6500 -62.4000 206° Southwest 450 518 43,000  Level Gander Center
09:45AM 54.5500 -62.5000 210° Southwest 450 518 43,000  Level Gander Center
09:46AM 54.4333 -62.6000 207° Southwest 460 529 43,000  Level Gander Center
09:47AM 54.3000 -62.6833 200° South 460 529 43,000  Level Gander Center
09:48AM 54.1833 -62.8000 210° Southwest 460 529 43,000  Level Gander Center
09:49AM 54.0833 -62.9000 210° Southwest 450 518 43,000  Level Gander Center
09:50AM 53.9667 -62.9833 203° Southwest 450 518 43,000  Level Gander Center
09:51AM 53.8500 -63.1000 211° Southwest 450 518 43,000  Level Gander Center
09:52AM 53.7500 -63.1833 206° Southwest 450 518 43,000  Level Gander Center
09:53AM 53.6333 -63.2833 207° Southwest 460 529 43,000  Level Gander Center
09:54AM 53.5333 -63.3667 206° Southwest 460 529 43,000  Level Gander Center
09:55AM 53.4167 -63.4667 207° Southwest 460 529 43,000  Level Gander Center
09:56AM 53.2833 -63.5500 200° South 450 518 43,000  Level Gander Center
09:57AM 53.1000 -63.6667 201° Southwest 440 506 43,000  Level Montreal Center
09:58AM 53.0000 -63.7500 207° Southwest 440 506 43,000  Level Montreal Center
09:59AM 52.8833 -63.8333 203° Southwest 440 506 43,000  Level Montreal Center
10:00AM 52.7667 -63.9333 207° Southwest 450 518 43,000  Level Montreal Center
10:01AM 52.6500 -64.0167 203° Southwest 440 506 43,000  Level Montreal Center
10:02AM 52.5333 -64.1000 203° Southwest 440 506 43,000  Level Montreal Center
10:03AM 52.4333 -64.2000 211° Southwest 450 518 43,000  Level Montreal Center
10:04AM 52.3167 -64.2833 204° Southwest 450 518 43,000  Level Montreal Center
10:05AM 52.2000 -64.3667 204° Southwest 450 518 43,000  Level Montreal Center
10:06AM 52.0833 -64.4500 204° Southwest 450 518 43,000  Level Montreal Center
10:07AM 51.9667 -64.5333 204° Southwest 450 518 43,000  Level Montreal Center
10:08AM 51.8667 -64.6167 207° Southwest 440 506 43,000  Level Montreal Center
10:09AM 51.7500 -64.7000 204° Southwest 440 506 43,000  Level Montreal Center
10:10AM 51.6333 -64.7833 204° Southwest 440 506 43,000  Level Montreal Center
10:11AM 51.5333 -64.8667 207° Southwest 440 506 43,000  Level Montreal Center
10:12AM 51.4167 -64.9500 204° Southwest 450 518 43,000  Level Montreal Center
10:13AM 51.2833 -65.0333 201° Southwest 450 518 43,000  Level Montreal Center
10:14AM 51.1833 -65.1167 208° Southwest 440 506 43,000  Level Montreal Center
10:15AM 51.0833 -65.2167 212° Southwest 440 506 43,000  Level Montreal Center
10:16AM 50.9667 -65.3000 204° Southwest 450 518 43,000  Level Montreal Center
10:17AM 50.8500 -65.3833 204° Southwest 440 506 43,000  Level Montreal Center
10:18AM 50.7333 -65.4667 204° Southwest 440 506 43,000  Level Montreal Center
10:19AM 50.6167 -65.5500 204° Southwest 440 506 43,000  Level Montreal Center
10:20AM 50.5167 -65.6167 203° Southwest 440 506 43,000  Level Montreal Center
10:21AM 50.4000 -65.7000 204° Southwest 440 506 43,000  Level Montreal Center
10:22AM 50.2833 -65.7833 205° Southwest 450 518 43,000  Level Montreal Center
10:23AM 50.1833 -65.8500 203° Southwest 440 506 43,000  Level Montreal Center
10:24AM 50.0667 -65.9333 205° Southwest 440 506 43,000  Level Montreal Center
10:25AM 49.9500 -66.0167 205° Southwest 440 506 43,000  Level Montreal Center
10:26AM 49.8500 -66.0833 203° Southwest 430 495 43,000  Level Montreal Center
10:27AM 49.7333 -66.1667 205° Southwest 430 495 43,000  Level Montreal Center
10:28AM 49.6167 -66.2333 200° South 430 495 43,000  Level Montreal Center
10:29AM 49.5333 -66.3167 213° Southwest 430 495 43,000  Level Montreal Center
10:30AM 49.4000 -66.3833 198° South 420 483 43,000  Level Montreal Center
10:31AM 49.3000 -66.4667 209° Southwest 430 495 43,000  Level Montreal Center
10:32AM 49.1833 -66.5333 200° South 430 495 43,000  Level Montreal Center
10:33AM 49.0833 -66.6000 204° Southwest 430 495 43,000  Level Montreal Center
10:34AM 48.9667 -66.6833 205° Southwest 430 495 43,000  Level Montreal Center
10:35AM 48.8500 -66.7500 201° Southwest 430 495 43,000  Level Montreal Center
10:36AM 48.7333 -66.8333 205° Southwest 420 483 43,000  Level Montreal Center
10:42AM 48.1805 -67.2249 203° Southwest 417 480 43,000  Level FlightAware ADS-B (CYSG)
10:42AM 48.1177 -67.2648 203° Southwest 413 475 43,000  Level FlightAware ADS-B (CYSG)
10:43AM 48.0493 -67.3083 203° Southwest 413 475 43,000  Level FlightAware ADS-B (CYSG)
10:44AM 47.9586 -67.3656 203° Southwest 413 475 43,000  Level FlightAware ADS-B (CYSG)
10:45AM 47.7927 -67.4699 203° Southwest 417 480 43,000  Level FlightAware ADS-B (CYSG)
10:46AM 47.7402 -67.5027 203° Southwest 416 479 43,000  Level FlightAware ADS-B (CYSG)
10:46AM 47.6850 -67.5371 203° Southwest 412 474 43,000  Level FlightAware ADS-B (CYSG)
10:47AM 47.5690 -67.6093 203° Southwest 415 478 43,000  Level FlightAware ADS-B (CYSG)
10:48AM 47.5006 -67.6517 203° Southwest 419 482 43,000  Level FlightAware ADS-B (CYSG)
10:48AM 47.4549 -67.6799 203° Southwest 423 487 43,000  Level FlightAware ADS-B (CYSG)
10:49AM 47.3557 -67.7410 203° Southwest 423 487 43,000  Level FlightAware ADS-B (CYSG)
10:50AM 47.3015 -67.7743 203° Southwest 430 495 43,000  Level FlightAware ADS-B (CYSG)
10:50AM 47.2533 -67.8038 203° Southwest 433 498 43,000  Level FlightAware ADS-B (CYSG)
10:51AM 47.1853 -67.8455 202° Southwest 427 491 43,000  Level FlightAware ADS-B (CYSG)
10:51AM 47.1235 -67.8778 198° South 423 487 43,000  Level FlightAware ADS-B (CYSG)
10:52AM 47.0435 -67.9151 198° South 424 488 43,000  Level FlightAware ADS-B (CYSG)
10:53AM 46.9858 -67.9418 198° South 422 486 43,000  Level FlightAware ADS-B (CYSG)
10:53AM 46.9154 -67.9743 198° South 421 484 43,000  Level FlightAware ADS-B (CYSG)
10:54AM 46.8530 -68.0030 198° South 413 475 43,000  Level FlightAware ADS-B (CYSG)
10:54AM 46.8030 -68.0260 197° South 414 476 43,000  Level FlightAware ADS-B (CYSG)
10:55AM 46.7078 -68.0695 197° South 411 473 43,000  Level FlightAware ADS-B (CYSG)
10:56AM 46.6625 -68.0902 197° South 412 474 43,000  Level FlightAware ADS-B (CYSG)
10:56AM 46.5656 -68.1343 197° South 412 474 43,000  Level FlightAware ADS-B (CYSG)
10:57AM 46.4897 -68.1688 197° South 417 480 43,000  Level FlightAware ADS-B (CYSG)
10:58AM 46.4173 -68.2015 197° South 415 478 43,000  Level FlightAware ADS-B (CYSG)
10:58AM 46.3559 -68.2291 197° South 415 478 43,000  Level FlightAware ADS-B (CYSG)
10:59AM 46.3082 -68.2506 197° South 418 481 43,000  Level FlightAware ADS-B (CYSG)
10:59AM 46.2367 -68.2828 197° South 422 486 43,000  Level FlightAware ADS-B (CYSG)
11:00AM 46.1808 -68.3078 197° South 422 486 43,000  Level FlightAware ADS-B (CYSG)
11:01AM 46.1215 -68.3344 197° South 426 490 43,000  Level FlightAware ADS-B (CYSG)
11:01AM 46.0501 -68.3662 197° South 427 491 43,000  Level FlightAware ADS-B (CYSG)
11:02AM 45.9912 -68.3924 197° South 434 499 43,000  Level FlightAware ADS-B (CYSG)
11:02AM 45.9278 -68.4204 197° South 435 501 43,000  Level FlightAware ADS-B (CYSG)
11:03AM 45.8722 -68.4450 197° South 433 498 43,000  Level FlightAware ADS-B (CYSG)
11:03AM 45.8136 -68.4709 197° South 434 499 43,000  Level FlightAware ADS-B (CYSG)
11:04AM 45.7336 -68.5062 197° South 429 494 43,000  Level FlightAware ADS-B (CYSG)
11:04AM 45.6995 -68.5212 197° South 429 494 43,000  Level FlightAware ADS-B (KBGR)
11:05AM 45.6123 -68.5594 197° South 429 494 43,000  Level FlightAware ADS-B (CYSG)
11:06AM 45.5475 -68.5877 197° South 424 488 43,000  Level FlightAware ADS-B (CYSG)
11:06AM 45.4968 -68.6099 197° South 423 487 43,000  Level FlightAware ADS-B (CYSG)
11:07AM 45.4154 -68.6455 197° South 426 490 43,000  Level FlightAware ADS-B (KBGR)
11:07AM 45.3371 -68.6793 197° South 427 491 43,000  Level FlightAware ADS-B (CYSG)
11:08AM 45.2845 -68.7022 197° South 422 486 43,000  Level FlightAware ADS-B (CYSG)
11:08AM 45.2173 -68.7312 197° South 424 488 43,000  Level FlightAware ADS-B (CYSG)
11:09AM 45.1630 -68.7547 197° South 428 493 43,000  Level FlightAware ADS-B (CYQI)
11:09AM 45.1015 -68.7810 197° South 425 489 43,000  Level FlightAware ADS-B (CYQI)
11:10AM 45.0405 -68.8072 197° South 427 491 43,000  Level FlightAware ADS-B (CYSG)
11:11AM 44.9782 -68.8339 197° South 425 489 43,000  Level FlightAware ADS-B (CYSG)
11:11AM 44.9310 -68.8541 197° South 425 489 43,000  Level FlightAware ADS-B (KBGR)
11:12AM 44.8633 -68.8830 197° South 426 490 43,000  Level FlightAware ADS-B (KBGR)
11:12AM 44.8212 -68.9009 197° South 425 489 43,000  Level FlightAware ADS-B (KBGR)
11:13AM 44.7636 -68.9254 197° South 426 490 43,000  Level FlightAware ADS-B (KBGR)
11:13AM 44.6998 -68.9524 197° South 421 484 43,000  Level FlightAware ADS-B (KBGR)
11:14AM 44.6355 -68.9797 197° South 426 490 43,000  Level FlightAware ADS-B (KBGR)
11:14AM 44.5690 -69.0077 197° South 430 495 43,000  Level FlightAware ADS-B (KBGR)
11:15AM 44.5127 -69.0315 197° South 431 496 43,000  Level FlightAware ADS-B (KBGR)
11:15AM 44.4481 -69.0586 197° South 427 491 43,000  Level FlightAware ADS-B (KBGR)
11:16AM 44.3996 -69.0788 197° South 421 484 43,000  Level FlightAware ADS-B (CYSG)
11:16AM 44.3370 -69.1051 197° South 422 486 43,000  Level FlightAware ADS-B (CYSG)
11:17AM 44.2846 -69.1272 197° South 425 489 43,000  Level FlightAware ADS-B (KBGR)
11:17AM 44.2269 -69.1511 197° South 425 489 43,000  Level FlightAware ADS-B (KBGR)
11:18AM 44.1635 -69.1774 197° South 423 487 43,000  Level FlightAware ADS-B (CYQI)
11:18AM 44.1073 -69.2008 197° South 423 487 43,000  Level FlightAware ADS-B (CYSG)
11:19AM 44.0481 -69.2253 197° South 422 486 43,000  Level FlightAware ADS-B (CYSG)
11:19AM 44.0115 -69.2404 197° South 423 487 43,000  Level FlightAware ADS-B (KBGR)
11:20AM 43.9333 -69.2727 197° South 421 484 43,000  Level FlightAware ADS-B (KBGR)
11:20AM 43.8623 -69.3019 197° South 421 484 43,000 -300 Level FlightAware ADS-B (CYQI)
11:21AM 43.7999 -69.3276 197° South 422 486 42,700 -840 Descending FlightAware ADS-B (CYQI)
11:22AM 43.7913 -69.3311 197° South 427 491 42,100 -1,260 Descending FlightAware ADS-B (KBOS)
11:22AM 43.7775 -69.3368 197° South 430 495 41,300 -1,620 Descending FlightAware ADS-B (KBGR)
11:23AM 43.5845 -69.4155 197° South 430 495 39,700 -1,680 Descending FlightAware ADS-B (CYQI)
11:24AM 43.5139 -69.4442 197° South 416 479 38,900 -1,500 Descending FlightAware ADS-B (KBOS)
11:24AM 43.4779 -69.4589 197° South 402 463 38,600 -1,380 Descending FlightAware ADS-B
11:24AM 43.4240 -69.4807 196° South 383 441 37,900 -1,020 Descending FlightAware ADS-B
11:25AM 43.3768 -69.4999 197° South 373 429 37,600 -720 Descending FlightAware ADS-B (KBOS)
11:25AM 43.3221 -69.5222 197° South 368 423 37,200 -540 Descending FlightAware ADS-B
11:26AM 43.2716 -69.5425 196° South 373 429 37,100 -240 Descending FlightAware ADS-B (KBOS)
11:26AM 43.2210 -69.5628 197° South 366 421 37,000 -120 Descending FlightAware ADS-B
11:27AM 43.2037 -69.5698 196° South 375 432 37,000  Level FlightAware ADS-B (CYQI)
11:27AM 43.1375 -69.5963 197° South 371 427 37,000  Level FlightAware ADS-B
11:28AM 43.1080 -69.6081 196° South 377 434 37,000  Level FlightAware ADS-B (CYQI)
11:28AM 43.0782 -69.6200 196° South 377 434 37,000  Level FlightAware ADS-B (CYQI)
11:28AM 43.0253 -69.6412 196° South 378 435 37,000  Level FlightAware ADS-B (CYQI)
11:29AM 42.9637 -69.6657 196° South 380 437 37,000  Level FlightAware ADS-B (KBOS)
11:30AM 42.9058 -69.6888 196° South 379 436 37,000  Level FlightAware ADS-B (CYQI)
11:30AM 42.9014 -69.6906 197° South 371 427 37,000  Level FlightAware ADS-B
11:30AM 42.8855 -69.6968 197° South 373 429 37,000 -420 Level FlightAware ADS-B
11:30AM 42.8761 -69.7006 197° South 373 429 36,900 -1,140 Descending FlightAware ADS-B
11:30AM 42.8585 -69.7076 197° South 374 430 36,700 -1,860 Descending FlightAware ADS-B
11:31AM 42.8023 -69.7299 196° South 385 443 35,600 -2,160 Descending FlightAware ADS-B (CYQI)
11:31AM 42.7478 -69.7514 196° South 392 451 34,400 -2,400 Descending FlightAware ADS-B (KBOS)
11:31AM 42.7104 -69.7663 196° South 397 457 33,500 -2,400 Descending FlightAware ADS-B (KBOS)
11:32AM 42.6661 -69.7837 196° South 394 453 32,400 -2,400 Descending FlightAware ADS-B (KBOS)
11:32AM 42.6084 -69.8064 196° South 387 445 31,100 -2,100 Descending FlightAware ADS-B (KBOS)
11:33AM 42.5547 -69.8275 196° South 366 421 30,300 -1,800 Descending FlightAware ADS-B (KBOS)
11:33AM 42.5070 -69.8463 196° South 349 402 29,300 -2,220 Descending FlightAware ADS-B (KBOS)
11:34AM 42.4582 -69.8655 196° South 342 394 28,100 -2,280 Descending FlightAware ADS-B (KBOS)
11:34AM 42.4153 -69.8824 196° South 332 382 27,000 -2,400 Descending FlightAware ADS-B (KBOS)
11:35AM 42.3703 -69.8999 196° South 338 389 25,700 -2,520 Descending FlightAware ADS-B (KBOS)
11:36AM 42.3154 -69.9215 196° South 363 418 24,300 -2,400 Descending FlightAware ADS-B (KBOS)
11:36AM 42.2667 -69.9402 196° South 355 409 23,100 -2,400 Descending FlightAware ADS-B (KBOS)
11:37AM 42.2122 -69.9614 197° South 338 389 21,800 -2,100 Descending FlightAware ADS-B
11:37AM 42.1676 -69.9788 196° South 333 383 20,900 -1,800 Descending FlightAware ADS-B
11:38AM 42.1268 -69.9945 196° South 330 380 20,000 -1,800 Descending FlightAware ADS-B (KBOS)
11:38AM 42.0634 -70.0192 196° South 322 371 18,800 -1,860 Descending FlightAware ADS-B
11:39AM 42.0368 -70.0295 196° South 319 367 18,200 -1,860 Descending FlightAware ADS-B (KBOS)
11:39AM 42.0106 -70.0441 209° Southwest 310 357 17,600 -1,680 Descending FlightAware ADS-B (ZSSL)
11:39AM 42.0033 -70.0497 211° Southwest 313 360 17,500 -1,800 Descending FlightAware ADS-B (KBOS)
11:40AM 41.9597 -70.0855 213° Southwest 306 352 16,400 -1,800 Descending FlightAware ADS-B
11:40AM 41.9440 -70.0985 213° Southwest 303 349 16,100 -1,200 Descending FlightAware ADS-B
11:40AM 41.9025 -70.1332 212° Southwest 309 356 15,500 -1,140 Descending FlightAware ADS-B
11:41AM 41.8638 -70.1655 212° Southwest 308 354 14,900 -1,200 Descending FlightAware ADS-B (ZSSL)
11:42AM 41.8155 -70.2058 213° Southwest 304 350 14,100 -1,140 Descending FlightAware ADS-B
11:42AM 41.7935 -70.2240 213° Southwest 303 349 13,800 -1,200 Descending FlightAware ADS-B
11:42AM 41.7545 -70.2566 213° Southwest 310 357 13,100 -1,260 Descending FlightAware ADS-B
11:43AM 41.7185 -70.2866 212° Southwest 304 350 12,500 -1,200 Descending FlightAware ADS-B (ZSSL)
11:43AM 41.6823 -70.3164 211° Southwest 282 325 11,900 -1,260 Descending FlightAware ADS-B
11:44AM 41.6436 -70.3483 212° Southwest 258 297 11,000 -1,260 Descending FlightAware ADS-B (ZSSL)
11:45AM 41.5758 -70.4239 261° West 231 266 9,500 -1,200 Descending FlightAware ADS-B (ZSSL)
11:47AM 41.5897 -70.5312 282° West 254 292 8,200 -1,020 Descending FlightAware ADS-B (ZSSL)
11:48AM 41.6067 -70.6415 282° West 253 291 7,100 -840 Descending FlightAware ADS-B (ZSSL)
11:49AM 41.6208 -70.7396 272° West 256 295 6,300 -660 Descending FlightAware ADS-B (ZSSL)
11:50AM 41.6078 -70.8031 272° West 273 314 6,000 -360 Descending Boston Center
11:50AM 41.6094 -70.8044 328° Northwest 262 302 6,000  Level Boston Center
11:51AM 41.5819 -70.9133 251° West 264 304 6,000  Level Boston Center
11:52AM 41.5628 -70.9853 250° West 263 303 6,000  Level Boston Center
11:52AM 41.5592 -71.0056 257° West 263 303 6,000 -540 Level Boston Center
11:53AM 41.5425 -71.0758 252° West 218 251 5,500 -840 Descending Boston Center
11:53AM 41.5406 -71.0878 258° West 232 267 5,200 -1,440 Descending Boston Center
11:54AM 41.5222 -71.1547 250° West 215 247 4,100 -1,320 Descending Boston Center
11:54AM 41.5228 -71.1647 274° West 219 252 3,900 -1,200 Descending Boston Center
11:55AM 41.5411 -71.2306 290° West 200 230 2,800 -1,200 Descending Boston Center
11:55AM 41.5483 -71.2367 328° Northwest 199 229 2,700 -780 Descending Boston Center
11:56AM 41.5794 -71.2761 317° Northwest 193 222 2,100 -720 Descending Boston Center
11:56AM 41.5897 -71.2858 325° Northwest 196 226 2,000 -120 Descending Boston Center
11:57AM 41.6139 -71.3086 325° Northwest 154 177 2,000  Level Boston Center
11:57AM 41.6247 -71.3192 324° Northwest 158 182 2,000  Level Boston Center
11:58AM 41.6458 -71.3431 320° Northwest 151 174 2,000 -240 Level Boston Center
11:58AM 41.6567 -71.3536 324° Northwest 149 171 1,800 -720 Descending Boston Center
11:59AM 41.6742 -71.3736 320° Northwest 121 139 1,300 -720 Descending Boston Center
11:59AM 41.6831 -71.3808 329° Northwest 124 143 1,100 -720 Descending Boston Center
12:00PM 41.6989 -71.4000 318° Northwest 112 129 600 -720 Descending Boston Center
12:00PM 41.7086 -71.4089 326° Northwest 112 129 400 10,500 Descending Boston Center
12:01PM 41.7281 -71.4283 323° Northwest 104 120 15,000 14,340 Climbing Boston Center